Time;durP1;ratioP1;P1;durP2;ratioP2;P2;SDS_P1;SDS_P2;PMS_P1;PMS_P2;Temp;Humidity;BMP_temperature;BMP_pressure;BME280_temperature;BME280_humidity;BME280_pressure;Samples;Min_cycle;Max_cycle;Signal;HPM_P1;HPM_P2
2022/09/10 00:00:35;;;;;;;7.68;2.55;;;;;;;;;;5326452;28;20022;-68
2022/09/10 00:03:06;;;;;;;9.70;2.60;;;;;;;;;;5327184;27;20598;-68
2022/09/10 00:05:44;;;;;;;7.93;2.60;;;;;;;;;;5325689;28;20076;-68
2022/09/10 00:08:17;;;;;;;14.82;3.42;;;;;;;;;;5326876;27;20747;-68
2022/09/10 00:10:50;;;;;;;9.68;2.55;;;;;;;;;;5326297;28;20022;-68
2022/09/10 00:13:22;;;;;;;10.07;2.95;;;;;;;;;;5326220;28;20412;-68
2022/09/10 00:15:53;;;;;;;8.57;2.40;;;;;;;;;;5326302;28;20019;-68
2022/09/10 00:18:24;;;;;;;7.82;2.38;;;;;;;;;;5326419;28;20019;-68
2022/09/10 00:20:56;;;;;;;7.75;2.38;;;;;;;;;;5325481;28;20023;-68
2022/09/10 00:23:28;;;;;;;10.02;2.80;;;;;;;;;;5325927;28;20273;-68
2022/09/10 00:26:07;;;;;;;11.73;2.72;;;;;;;;;;5325869;28;20023;-68
2022/09/10 00:28:38;;;;;;;;;;;;;;;;;;5326378;27;20478;-68
2022/09/10 00:31:09;;;;;;;10.90;2.60;;;;;;;;;;5326322;28;20003;-68
2022/09/10 00:33:41;;;;;;;9.38;2.75;;;;;;;;;;5324973;28;20015;-69
2022/09/10 00:36:13;;;;;;;10.52;2.60;;;;;;;;;;5326626;27;20101;-68
2022/09/10 00:38:45;;;;;;;10.75;2.55;;;;;;;;;;5325218;27;20373;-68
2022/09/10 00:41:19;;;;;;;9.00;2.97;;;;;;;;;;5325065;28;20428;-69
2022/09/10 00:43:50;;;;;;;11.55;3.03;;;;;;;;;;5325601;28;20028;-69
2022/09/10 00:46:25;;;;;;;9.13;2.67;;;;;;;;;;5326103;28;20066;-69
2022/09/10 00:48:57;;;;;;;10.27;2.67;;;;;;;;;;5325402;28;20301;-69
2022/09/10 00:51:31;;;;;;;11.63;3.42;;;;;;;;;;5325631;28;20027;-69
2022/09/10 00:54:04;;;;;;;9.15;2.75;;;;;;;;;;5325129;28;20046;-69
2022/09/10 00:56:35;;;;;;;11.88;3.70;;;;;;;;;;5325265;27;20023;-68
2022/09/10 00:59:08;;;;;;;7.72;3.92;;;;;;;;;;5326116;28;20080;-68
2022/09/10 01:01:39;;;;;;;11.70;4.22;;;;;;;;;;5324530;28;20116;-68
2022/09/10 01:04:10;;;;;;;10.15;3.80;;;;;;;;;;5325841;28;20092;-68
2022/09/10 01:06:44;;;;;;;15.80;3.60;;;;;;;;;;5325224;28;20043;-68
2022/09/10 01:09:16;;;;;;;10.60;3.75;;;;;;;;;;5324753;28;20303;-69
2022/09/10 01:11:53;;;;;;;11.05;3.75;;;;;;;;;;5325169;28;20016;-68
2022/09/10 01:14:44;;;;;;;6.15;3.83;;;;;;;;;;5325278;28;20023;-69
2022/09/10 01:17:22;;;;;;;16.92;4.45;;;;;;;;;;5324145;28;20031;-68
2022/09/10 01:19:57;;;;;;;11.55;4.53;;;;;;;;;;5324953;28;20016;-68
2022/09/10 01:22:36;;;;;;;11.63;3.65;;;;;;;;;;5324072;28;20030;-68
2022/09/10 01:25:07;;;;;;;;;;;;;;;;;;5326048;28;20016;-67
2022/09/10 01:27:40;;;;;;;9.07;3.85;;;;;;;;;;5324697;28;19904;-68
2022/09/10 01:30:22;;;;;;;12.02;4.43;;;;;;;;;;5324310;28;20039;-68
2022/09/10 01:32:53;;;;;;;14.38;4.30;;;;;;;;;;5324589;28;20035;-68
2022/09/10 01:35:31;;;;;;;10.32;4.43;;;;;;;;;;5325045;28;20031;-67
2022/09/10 01:38:05;;;;;;;9.85;4.88;;;;;;;;;;5324412;28;20016;-67
2022/09/10 01:40:37;;;;;;;12.63;5.35;;;;;;;;;;5324469;28;20095;-68
2022/09/10 01:43:09;;;;;;;12.32;5.18;;;;;;;;;;5324188;28;20098;-67
2022/09/10 01:45:47;;;;;;;17.17;4.85;;;;;;;;;;5324274;28;20050;-67
2022/09/10 01:48:45;;;;;;;10.18;5.10;;;;;;;;;;5325476;28;20481;-67
2022/09/10 01:51:28;;;;;;;12.68;4.68;;;;;;;;;;5323159;28;20024;-67
2022/09/10 01:54:10;;;;;;;12.70;5.68;;;;;;;;;;5325156;28;20462;-67
2022/09/10 01:56:54;;;;;;;12.55;5.25;;;;;;;;;;5324441;28;20567;-67
2022/09/10 01:59:39;;;;;;;14.20;5.53;;;;;;;;;;5323751;28;20022;-67
2022/09/10 02:02:20;;;;;;;11.27;5.28;;;;;;;;;;5324905;28;20039;-67
2022/09/10 02:04:52;;;;;;;13.18;5.45;;;;;;;;;;5323155;28;20019;-67
2022/09/10 02:07:25;;;;;;;10.32;5.18;;;;;;;;;;5324269;28;20497;-67
2022/09/10 02:09:58;;;;;;;13.40;5.80;;;;;;;;;;5324545;28;20076;-68
2022/09/10 02:12:29;;;;;;;11.95;5.78;;;;;;;;;;5322972;28;20585;-68
2022/09/10 02:15:00;;;;;;;13.07;5.57;;;;;;;;;;5324512;28;20098;-69
2022/09/10 02:17:33;;;;;;;14.52;6.85;;;;;;;;;;5323766;28;20016;-68
2022/09/10 02:20:06;;;;;;;10.80;5.85;;;;;;;;;;5323411;28;20024;-68
2022/09/10 02:22:39;;;;;;;16.10;6.47;;;;;;;;;;5323598;28;20042;-68
2022/09/10 02:25:11;;;;;;;21.73;7.68;;;;;;;;;;5324409;28;20012;-67
2022/09/10 02:27:42;;;;;;;13.40;6.68;;;;;;;;;;5323054;28;20019;-66
2022/09/10 02:30:14;;;;;;;15.38;7.43;;;;;;;;;;5324029;28;20064;-66
2022/09/10 02:32:46;;;;;;;16.85;7.22;;;;;;;;;;5322753;28;20051;-67
2022/09/10 02:35:17;;;;;;;16.48;7.18;;;;;;;;;;5324220;28;20470;-67
2022/09/10 02:37:49;;;;;;;15.07;7.05;;;;;;;;;;5323524;28;20046;-67
2022/09/10 02:40:20;;;;;;;14.02;7.22;;;;;;;;;;5323220;28;20456;-66
2022/09/10 02:42:51;;;;;;;13.43;7.28;;;;;;;;;;5323258;28;20020;-66
2022/09/10 02:45:23;;;;;;;12.60;8.15;;;;;;;;;;5323821;28;20387;-66
2022/09/10 02:47:54;;;;;;;17.65;8.25;;;;;;;;;;5323065;28;20261;-66
2022/09/10 02:50:26;;;;;;;18.55;7.93;;;;;;;;;;5323330;28;20039;-67
2022/09/10 02:52:57;;;;;;;18.13;9.00;;;;;;;;;;5323874;28;20344;-67
2022/09/10 02:55:28;;;;;;;18.50;8.88;;;;;;;;;;5322344;28;20051;-67
2022/09/10 02:57:59;;;;;;;23.08;9.07;;;;;;;;;;5323907;28;20755;-67
2022/09/10 03:00:31;;;;;;;19.33;8.57;;;;;;;;;;5322457;28;20031;-66
2022/09/10 03:03:02;;;;;;;15.63;8.80;;;;;;;;;;5323351;28;20258;-67
2022/09/10 03:05:37;;;;;;;14.10;8.73;;;;;;;;;;5322885;28;20027;-67
2022/09/10 03:08:08;;;;;;;20.27;8.77;;;;;;;;;;5323043;28;20026;-67
2022/09/10 03:10:40;;;;;;;17.30;9.77;;;;;;;;;;5322693;28;20039;-67
2022/09/10 03:13:11;;;;;;;15.52;9.25;;;;;;;;;;5323651;28;20502;-67
2022/09/10 03:15:42;;;;;;;13.38;9.50;;;;;;;;;;5322299;28;20136;-67
2022/09/10 03:18:14;;;;;;;20.42;10.05;;;;;;;;;;5323548;28;20027;-67
2022/09/10 03:20:45;;;;;;;21.15;10.00;;;;;;;;;;5323250;28;20497;-66
2022/09/10 03:23:17;;;;;;;21.80;10.10;;;;;;;;;;5323267;28;20065;-66
2022/09/10 03:25:48;;;;;;;21.88;9.35;;;;;;;;;;5323146;28;20318;-66
2022/09/10 03:28:19;;;;;;;19.33;9.57;;;;;;;;;;5323648;28;20379;-68
2022/09/10 03:30:50;;;;;;;22.60;9.80;;;;;;;;;;5322285;28;20273;-65
2022/09/10 03:33:21;;;;;;;22.20;10.13;;;;;;;;;;5323583;28;20275;-66
2022/09/10 03:35:53;;;;;;;22.23;10.77;;;;;;;;;;5322100;28;20463;-66
2022/09/10 03:38:25;;;;;;;17.30;10.75;;;;;;;;;;5323395;28;20265;-68
2022/09/10 03:40:57;;;;;;;21.73;11.68;;;;;;;;;;5323583;28;20024;-66
2022/09/10 03:43:28;;;;;;;20.75;12.35;;;;;;;;;;5322195;28;20057;-66
2022/09/10 03:46:01;;;;;;;18.40;11.82;;;;;;;;;;5323401;28;20047;-66
2022/09/10 03:48:32;;;;;;;22.23;12.63;;;;;;;;;;5322750;28;20106;-67
2022/09/10 03:51:03;;;;;;;19.85;12.63;;;;;;;;;;5322687;28;20099;-66
2022/09/10 03:53:35;;;;;;;21.85;13.02;;;;;;;;;;5322571;28;20023;-66
2022/09/10 03:56:07;;;;;;;22.75;12.52;;;;;;;;;;5323500;28;20015;-66
2022/09/10 03:58:38;;;;;;;21.50;13.23;;;;;;;;;;5322033;28;20023;-66
2022/09/10 04:01:10;;;;;;;24.95;13.00;;;;;;;;;;5323310;28;20019;-66
2022/09/10 04:03:41;;;;;;;22.80;12.55;;;;;;;;;;5322869;28;20424;-66
2022/09/10 04:06:13;;;;;;;20.93;13.33;;;;;;;;;;5322602;28;20039;-66
2022/09/10 04:08:47;;;;;;;21.85;13.55;;;;;;;;;;5322788;28;20293;-66
2022/09/10 04:11:19;;;;;;;24.00;13.18;;;;;;;;;;5322537;28;20535;-66
2022/09/10 04:13:51;;;;;;;23.23;12.90;;;;;;;;;;5322665;28;20019;-66
2022/09/10 04:16:22;;;;;;;21.65;13.00;;;;;;;;;;5326604;28;20030;-66
2022/09/10 04:18:53;;;;;;;20.58;13.55;;;;;;;;;;5325662;28;20091;-66
2022/09/10 04:21:24;;;;;;;22.50;13.70;;;;;;;;;;5326452;28;20081;-66
2022/09/10 04:23:58;;;;;;;26.88;13.80;;;;;;;;;;5326459;28;20039;-66
2022/09/10 04:26:29;;;;;;;23.88;13.63;;;;;;;;;;5325265;28;20265;-66
2022/09/10 04:29:00;;;;;;;27.37;14.27;;;;;;;;;;5326477;28;20548;-66
2022/09/10 04:31:31;;;;;;;23.23;13.55;;;;;;;;;;5325910;28;20703;-66
2022/09/10 04:34:02;;;;;;;21.33;13.73;;;;;;;;;;5325715;28;20670;-66
2022/09/10 04:36:33;;;;;;;24.40;14.13;;;;;;;;;;5325912;28;20639;-66
2022/09/10 04:39:05;;;;;;;22.08;13.15;;;;;;;;;;5325546;28;20058;-66
2022/09/10 04:41:36;;;;;;;26.90;13.60;;;;;;;;;;5325569;28;20307;-66
2022/09/10 04:44:07;;;;;;;22.15;14.63;;;;;;;;;;5326221;28;20339;-66
2022/09/10 04:46:40;;;;;;;23.40;14.80;;;;;;;;;;5324629;28;20486;-66
2022/09/10 04:49:11;;;;;;;25.27;14.60;;;;;;;;;;5326031;28;20031;-66
2022/09/10 04:51:42;;;;;;;20.48;14.05;;;;;;;;;;5325399;28;20288;-66
2022/09/10 04:54:13;;;;;;;22.88;14.02;;;;;;;;;;5325262;28;20047;-66
2022/09/10 04:56:45;;;;;;;18.27;13.57;;;;;;;;;;5325594;28;20261;-66
2022/09/10 04:59:16;;;;;;;25.00;14.77;;;;;;;;;;5326063;28;20019;-66
2022/09/10 05:01:50;;;;;;;23.05;13.80;;;;;;;;;;5324568;28;20036;-67
2022/09/10 05:04:22;;;;;;;26.45;14.63;;;;;;;;;;5325763;28;20597;-67
2022/09/10 05:06:53;;;;;;;28.10;15.50;;;;;;;;;;5325062;28;20084;-67
2022/09/10 05:09:24;;;;;;;24.60;14.30;;;;;;;;;;5324472;28;20024;-67
2022/09/10 05:11:56;;;;;;;22.83;14.75;;;;;;;;;;5325346;28;20258;-67
2022/09/10 05:14:28;;;;;;;24.65;15.05;;;;;;;;;;5324254;28;20023;-67
2022/09/10 05:16:59;;;;;;;25.63;14.68;;;;;;;;;;5325431;28;20035;-67
2022/09/10 05:19:30;;;;;;;19.97;15.43;;;;;;;;;;5324842;28;20050;-67
2022/09/10 05:22:01;;;;;;;21.73;15.10;;;;;;;;;;5324412;28;20293;-67
2022/09/10 05:24:33;;;;;;;22.27;15.57;;;;;;;;;;5324630;28;20752;-67
2022/09/10 05:27:04;;;;;;;22.40;15.85;;;;;;;;;;5324882;28;20716;-67
2022/09/10 05:29:35;;;;;;;22.15;15.65;;;;;;;;;;5323601;28;20416;-67
2022/09/10 05:32:08;;;;;;;23.35;16.13;;;;;;;;;;5325016;28;20011;-67
2022/09/10 05:34:39;;;;;;;27.67;15.63;;;;;;;;;;5324499;28;20020;-67
2022/09/10 05:37:10;;;;;;;25.05;15.88;;;;;;;;;;5324293;28;20027;-67
2022/09/10 05:39:42;;;;;;;26.92;16.58;;;;;;;;;;5324249;28;20048;-67
2022/09/10 05:42:13;;;;;;;30.52;17.13;;;;;;;;;;5324773;28;20008;-67
2022/09/10 05:44:44;;;;;;;25.27;16.95;;;;;;;;;;5324084;28;20027;-66
2022/09/10 05:47:16;;;;;;;22.95;17.88;;;;;;;;;;5324949;28;20111;-67
2022/09/10 05:49:48;;;;;;;26.13;18.55;;;;;;;;;;5323314;28;20027;-67
2022/09/10 05:52:19;;;;;;;24.13;17.13;;;;;;;;;;5324759;28;20012;-67
2022/09/10 05:54:50;;;;;;;25.73;18.15;;;;;;;;;;5324306;28;20106;-67
2022/09/10 05:57:21;;;;;;;26.05;18.65;;;;;;;;;;5324001;28;20254;-67
2022/09/10 05:59:53;;;;;;;27.63;18.58;;;;;;;;;;5324201;28;20016;-67
2022/09/10 06:02:25;;;;;;;23.98;18.02;;;;;;;;;;5324526;28;20011;-66
2022/09/10 06:04:57;;;;;;;28.17;18.70;;;;;;;;;;5323867;28;20022;-66
2022/09/10 06:07:29;;;;;;;22.25;17.50;;;;;;;;;;5324243;28;20047;-67
2022/09/10 06:10:00;;;;;;;25.30;16.73;;;;;;;;;;5324492;28;20100;-67
2022/09/10 06:12:33;;;;;;;19.23;16.13;;;;;;;;;;5323150;28;20232;-66
2022/09/10 06:15:04;;;;;;;22.25;17.70;;;;;;;;;;5324310;28;20016;-67
2022/09/10 06:17:37;;;;;;;21.35;17.33;;;;;;;;;;5323026;28;20030;-67
2022/09/10 06:20:08;;;;;;;22.27;18.08;;;;;;;;;;5324427;28;20065;-67
2022/09/10 06:22:40;;;;;;;24.77;18.33;;;;;;;;;;5323978;28;20466;-67
2022/09/10 06:25:11;;;;;;;23.93;17.53;;;;;;;;;;5323630;28;20016;-67
2022/09/10 06:27:43;;;;;;;21.33;18.92;;;;;;;;;;5323771;28;20732;-67
2022/09/10 06:30:14;;;;;;;24.48;18.48;;;;;;;;;;5324170;28;20255;-68
2022/09/10 06:32:45;;;;;;;21.80;18.70;;;;;;;;;;5322933;28;20103;-67
2022/09/10 06:35:17;;;;;;;21.88;18.92;;;;;;;;;;5324170;28;20460;-67
2022/09/10 06:37:49;;;;;;;22.17;19.00;;;;;;;;;;5323026;28;20364;-68
2022/09/10 06:40:20;;;;;;;27.73;19.75;;;;;;;;;;5323316;28;20026;-67
2022/09/10 06:42:51;;;;;;;26.17;19.98;;;;;;;;;;5323362;28;20034;-67
2022/09/10 06:45:22;;;;;;;28.23;20.08;;;;;;;;;;5323687;28;20402;-67
2022/09/10 06:47:54;;;;;;;25.85;20.08;;;;;;;;;;5322648;28;20065;-67
2022/09/10 06:50:25;;;;;;;25.88;21.10;;;;;;;;;;5323560;28;20038;-67
2022/09/10 06:52:56;;;;;;;24.30;21.52;;;;;;;;;;5323120;28;20369;-67
2022/09/10 06:55:27;;;;;;;23.38;20.27;;;;;;;;;;5323387;28;20069;-67
2022/09/10 06:57:58;;;;;;;26.30;20.15;;;;;;;;;;5324082;28;20012;-67
2022/09/10 07:00:31;;;;;;;22.80;19.88;;;;;;;;;;5322549;28;20265;-68
2022/09/10 07:03:02;;;;;;;21.52;19.23;;;;;;;;;;5323822;28;20411;-68
2022/09/10 07:05:33;;;;;;;23.92;21.35;;;;;;;;;;5323375;28;20026;-67
2022/09/10 07:08:05;;;;;;;22.08;19.67;;;;;;;;;;5323031;28;20016;-67
2022/09/10 07:10:36;;;;;;;21.15;18.63;;;;;;;;;;5322918;28;20726;-68
2022/09/10 07:13:07;;;;;;;21.27;18.90;;;;;;;;;;5324030;28;20026;-68
2022/09/10 07:15:45;;;;;;;21.17;17.58;;;;;;;;;;5322094;28;20265;-67
2022/09/10 07:18:16;;;;;;;20.47;16.80;;;;;;;;;;5323801;28;20311;-67
2022/09/10 07:20:47;;;;;;;19.35;17.45;;;;;;;;;;5322290;28;20043;-67
2022/09/10 07:23:20;;;;;;;18.73;16.20;;;;;;;;;;5323382;28;20024;-66
2022/09/10 07:25:51;;;;;;;18.13;16.45;;;;;;;;;;5323009;28;20265;-69
2022/09/10 07:28:22;;;;;;;17.47;15.67;;;;;;;;;;5322841;28;20521;-68
2022/09/10 07:30:54;;;;;;;19.77;17.50;;;;;;;;;;5322563;28;20713;-67
2022/09/10 07:33:25;;;;;;;18.48;15.60;;;;;;;;;;5323091;28;20741;-68
2022/09/10 07:35:58;;;;;;;19.45;17.42;;;;;;;;;;5316453;28;20478;-67
2022/09/10 07:38:29;;;;;;;17.80;15.95;;;;;;;;;;5314972;28;20023;-67
2022/09/10 07:41:01;;;;;;;19.55;17.00;;;;;;;;;;5309319;28;20160;-67
2022/09/10 07:43:32;;;;;;;23.67;18.17;;;;;;;;;;5299141;28;20345;-66
2022/09/10 07:46:07;;;;;;;20.20;18.05;;;;;;;;;;5300495;28;20055;-67
2022/09/10 07:48:39;;;;;;;19.10;17.10;;;;;;;;;;5300980;28;20578;-67
2022/09/10 07:51:10;;;;;;;20.75;18.73;;;;;;;;;;5331774;27;20075;-67
2022/09/10 07:53:41;;;;;;;19.45;17.52;;;;;;;;;;5345937;27;20019;-67
2022/09/10 07:56:12;;;;;;;20.00;18.08;;;;;;;;;;5346292;27;20030;-67
2022/09/10 07:58:44;;;;;;;20.50;18.33;;;;;;;;;;5346488;27;20436;-66
2022/09/10 08:01:15;;;;;;;21.33;18.85;;;;;;;;;;5347201;27;20336;-67
2022/09/10 08:03:46;;;;;;;22.20;20.00;;;;;;;;;;5346036;27;20259;-67
2022/09/10 08:06:18;;;;;;;20.67;18.67;;;;;;;;;;5347702;27;20146;-66
2022/09/10 08:08:49;;;;;;;19.30;17.38;;;;;;;;;;5347174;27;20853;-67
2022/09/10 08:11:20;;;;;;;17.83;16.23;;;;;;;;;;5346768;27;20019;-67
2022/09/10 08:13:52;;;;;;;19.45;17.85;;;;;;;;;;5346885;27;20034;-67
2022/09/10 08:16:24;;;;;;;20.35;18.55;;;;;;;;;;5347220;27;20019;-68
2022/09/10 08:18:59;;;;;;;21.10;18.58;;;;;;;;;;5346008;27;20415;-67
2022/09/10 08:21:30;;;;;;;18.73;17.10;;;;;;;;;;5346879;27;20015;-68
2022/09/10 08:24:02;;;;;;;20.38;18.33;;;;;;;;;;5347399;27;20025;-67
2022/09/10 08:26:33;;;;;;;19.50;17.77;;;;;;;;;;5347413;27;20023;-67
2022/09/10 08:29:04;;;;;;;20.67;18.67;;;;;;;;;;5348002;27;20034;-67
2022/09/10 08:31:35;;;;;;;19.38;17.85;;;;;;;;;;5346467;27;20714;-67
2022/09/10 08:34:09;;;;;;;20.00;18.20;;;;;;;;;;5347939;27;20015;-67
2022/09/10 08:36:41;;;;;;;19.67;17.63;;;;;;;;;;5347307;27;20053;-67
2022/09/10 08:39:12;;;;;;;17.90;16.27;;;;;;;;;;5347047;27;20042;-69
2022/09/10 08:42:02;;;;;;;17.73;16.02;;;;;;;;;;5347437;27;20047;-67
2022/09/10 08:44:48;;;;;;;16.08;14.70;;;;;;;;;;5347002;27;20517;-68
2022/09/10 08:47:38;;;;;;;14.30;12.98;;;;;;;;;;5344206;27;20104;-68
2022/09/10 08:50:17;;;;;;;15.32;13.68;;;;;;;;;;5347461;27;20050;-68
2022/09/10 08:52:48;;;;;;;;;;;;;;;;;;5346529;27;20450;-67
2022/09/10 08:55:19;;;;;;;12.75;11.55;;;;;;;;;;5347291;27;19921;-68
2022/09/10 08:57:54;;;;;;;13.40;12.00;;;;;;;;;;5343040;27;20553;-68
2022/09/10 09:00:28;;;;;;;13.68;12.48;;;;;;;;;;5323709;28;20016;-68
2022/09/10 09:03:18;;;;;;;13.63;12.27;;;;;;;;;;5325990;28;20387;-68
2022/09/10 09:05:54;;;;;;;16.10;12.52;;;;;;;;;;5325433;28;20020;-67
2022/09/10 09:08:28;;;;;;;18.95;13.80;;;;;;;;;;5324382;28;20016;-68
2022/09/10 09:11:02;;;;;;;14.85;13.13;;;;;;;;;;5325954;28;20105;-67
2022/09/10 09:13:34;;;;;;;16.75;13.88;;;;;;;;;;5324458;28;20553;-69
2022/09/10 09:16:24;;;;;;;14.57;13.27;;;;;;;;;;5325696;28;20020;-70
2022/09/10 09:19:01;;;;;;;16.65;15.02;;;;;;;;;;5325444;28;20109;-70
2022/09/10 09:21:35;;;;;;;17.88;15.43;;;;;;;;;;5323477;28;20016;-70
2022/09/10 09:24:18;;;;;;;18.55;16.70;;;;;;;;;;5325121;28;20016;-69
2022/09/10 09:26:49;;;;;;;18.30;16.63;;;;;;;;;;5324681;28;20113;-69
2022/09/10 09:29:23;;;;;;;19.53;17.43;;;;;;;;;;5324612;28;20168;-69
2022/09/10 09:31:56;;;;;;;19.13;17.08;;;;;;;;;;5324842;28;20360;-68
2022/09/10 09:35:01;;;;;;;17.45;15.75;;;;;;;;;;5323779;28;20031;-68
2022/09/10 09:37:35;;;;;;;17.88;16.20;;;;;;;;;;5290427;28;20509;-69
2022/09/10 09:40:24;;;;;;;17.85;16.02;;;;;;;;;;5325292;28;20044;-68
2022/09/10 09:42:57;;;;;;;17.75;14.65;;;;;;;;;;5324534;28;20016;-68
2022/09/10 09:45:38;;;;;;;16.55;14.95;;;;;;;;;;5324236;28;20047;-68
2022/09/10 09:48:11;;;;;;;16.80;14.65;;;;;;;;;;5324890;28;20023;-67
2022/09/10 09:50:44;;;;;;;17.00;15.35;;;;;;;;;;5323648;28;20035;-67
2022/09/10 09:53:21;;;;;;;17.50;14.60;;;;;;;;;;5324745;28;20047;-67
2022/09/10 09:55:54;;;;;;;14.93;11.50;;;;;;;;;;5323493;28;20016;-67
2022/09/10 09:58:26;;;;;;;14.52;12.93;;;;;;;;;;5324425;28;20022;-67
2022/09/10 10:01:03;;;;;;;15.82;13.23;;;;;;;;;;5324879;28;20016;-68
2022/09/10 10:03:47;;;;;;;14.93;13.43;;;;;;;;;;5323406;28;20020;-67
2022/09/10 10:06:41;;;;;;;18.13;14.32;;;;;;;;;;5324370;28;20475;-67
2022/09/10 10:09:19;;;;;;;15.23;13.13;;;;;;;;;;5315647;28;20043;-68
2022/09/10 10:11:50;;;;;;;13.73;12.35;;;;;;;;;;5322224;28;20118;-67
2022/09/10 10:14:23;;;;;;;16.25;12.75;;;;;;;;;;5324219;28;20509;-67
2022/09/10 10:16:54;;;;;;;15.20;13.68;;;;;;;;;;5323074;28;20325;-67
2022/09/10 10:19:33;;;;;;;16.08;13.18;;;;;;;;;;5324109;28;20462;-67
2022/09/10 10:22:04;;;;;;;;;;;;;;;;;;5325597;28;20486;-66
2022/09/10 10:24:35;;;;;;;12.40;11.20;;;;;;;;;;5323380;28;19907;-67
2022/09/10 10:27:15;;;;;;;12.82;11.52;;;;;;;;;;5324473;28;20047;-67
2022/09/10 10:29:53;;;;;;;13.18;10.40;;;;;;;;;;5323642;28;20324;-68
2022/09/10 10:32:36;;;;;;;9.98;9.10;;;;;;;;;;5323368;28;20408;-67
2022/09/10 10:35:28;;;;;;;10.57;9.25;;;;;;;;;;5323944;28;20039;-67
2022/09/10 10:38:19;;;;;;;11.65;9.10;;;;;;;;;;5323039;28;20358;-67
2022/09/10 10:40:59;;;;;;;11.30;9.13;;;;;;;;;;5323120;28;20140;-68
2022/09/10 10:43:40;;;;;;;14.82;7.93;;;;;;;;;;5323433;28;20045;-68
2022/09/10 10:46:11;;;;;;;8.50;7.65;;;;;;;;;;5322864;28;20043;-68
2022/09/10 10:48:58;;;;;;;11.27;7.38;;;;;;;;;;5323245;28;20019;-69
2022/09/10 10:51:42;;;;;;;10.55;7.03;;;;;;;;;;5323087;28;20482;-68
2022/09/10 10:54:36;;;;;;;7.53;6.53;;;;;;;;;;5323602;28;20019;-67
2022/09/10 10:57:08;;;;;;;9.75;6.20;;;;;;;;;;5324105;28;20055;-67
2022/09/10 10:59:49;;;;;;;10.60;6.45;;;;;;;;;;5322558;28;20147;-67
2022/09/10 11:02:37;;;;;;;9.35;5.90;;;;;;;;;;5324170;28;20115;-67
2022/09/10 11:05:21;;;;;;;11.65;5.68;;;;;;;;;;5324168;28;20086;-68
2022/09/10 11:07:53;;;;;;;9.07;5.97;;;;;;;;;;5322744;28;20109;-67
2022/09/10 11:10:26;;;;;;;15.20;7.05;;;;;;;;;;5323558;28;20494;-67
2022/09/10 11:12:57;;;;;;;15.25;6.88;;;;;;;;;;5322796;28;20020;-67
2022/09/10 11:15:29;;;;;;;10.90;6.85;;;;;;;;;;5322998;28;20045;-66
2022/09/10 11:18:05;;;;;;;11.18;7.72;;;;;;;;;;5323822;28;20045;-68
2022/09/10 11:20:41;;;;;;;14.52;8.32;;;;;;;;;;5322520;28;20378;-68
2022/09/10 11:23:25;;;;;;;9.90;7.50;;;;;;;;;;5324026;28;20041;-67
2022/09/10 11:26:11;;;;;;;12.43;8.23;;;;;;;;;;5328425;28;20047;-67
2022/09/10 11:28:46;;;;;;;12.50;9.10;;;;;;;;;;5326675;28;20016;-66
2022/09/10 11:31:28;;;;;;;13.88;9.25;;;;;;;;;;5327908;28;20024;-67
2022/09/10 11:34:04;;;;;;;15.18;9.27;;;;;;;;;;5327021;28;20457;-67
2022/09/10 11:36:45;;;;;;;16.77;9.10;;;;;;;;;;5327024;28;20023;-67
2022/09/10 11:39:28;;;;;;;13.60;9.70;;;;;;;;;;5327887;28;20015;-67
2022/09/10 11:42:02;;;;;;;14.10;7.05;;;;;;;;;;5326942;28;20019;-67
2022/09/10 11:44:41;;;;;;;11.55;7.15;;;;;;;;;;5327022;28;20510;-69
2022/09/10 11:47:15;;;;;;;10.02;6.78;;;;;;;;;;5327475;28;20051;-69
2022/09/10 11:49:51;;;;;;;11.77;6.07;;;;;;;;;;5326072;28;20477;-69
2022/09/10 11:52:24;;;;;;;6.50;4.90;;;;;;;;;;5327043;28;20099;-69
2022/09/10 11:54:56;;;;;;;12.70;4.60;;;;;;;;;;5326932;28;20020;-69
2022/09/10 11:57:33;;;;;;;12.30;5.15;;;;;;;;;;5324968;28;20481;-67
2022/09/10 12:00:11;;;;;;;10.93;5.85;;;;;;;;;;5327038;28;20068;-68
2022/09/10 12:03:03;;;;;;;8.57;5.47;;;;;;;;;;5326110;28;20111;-68
2022/09/10 12:05:53;;;;;;;11.93;5.50;;;;;;;;;;5326008;28;20030;-68
2022/09/10 12:08:31;;;;;;;8.15;5.30;;;;;;;;;;5327080;28;20023;-68
2022/09/10 12:11:05;;;;;;;11.20;7.03;;;;;;;;;;5326251;28;20032;-67
2022/09/10 12:13:38;;;;;;;14.32;7.72;;;;;;;;;;5326274;28;20015;-69
2022/09/10 12:16:35;;;;;;;15.20;9.10;;;;;;;;;;5326246;28;20057;-67
2022/09/10 12:19:22;;;;;;;15.02;9.73;;;;;;;;;;5324098;28;20031;-67
2022/09/10 12:21:56;;;;;;;17.83;9.63;;;;;;;;;;5325591;28;20027;-67
2022/09/10 12:24:35;;;;;;;10.70;9.73;;;;;;;;;;5325323;28;20022;-67
2022/09/10 12:27:14;;;;;;;16.83;10.68;;;;;;;;;;5325815;28;20486;-67
2022/09/10 12:29:46;;;;;;;14.85;10.75;;;;;;;;;;5325902;28;20027;-67
2022/09/10 12:32:18;;;;;;;13.13;9.65;;;;;;;;;;5326290;28;20034;-67
2022/09/10 12:35:09;;;;;;;12.95;9.60;;;;;;;;;;5325310;28;20032;-67
2022/09/10 12:37:40;;;;;;;16.33;8.57;;;;;;;;;;5324795;28;20119;-67
2022/09/10 12:40:24;;;;;;;10.13;9.00;;;;;;;;;;5326546;28;20035;-67
2022/09/10 12:43:17;;;;;;;10.18;8.65;;;;;;;;;;5325777;28;20387;-67
2022/09/10 12:46:24;;;;;;;8.00;6.97;;;;;;;;;;5324373;28;20134;-67
2022/09/10 12:48:55;;;;;;;10.02;8.73;;;;;;;;;;5302820;28;20036;-67
2022/09/10 12:51:33;;;;;;;13.00;8.40;;;;;;;;;;5324600;28;20023;-68
2022/09/10 12:54:04;;;;;;;8.43;7.72;;;;;;;;;;5325780;28;20277;-67
2022/09/10 12:56:55;;;;;;;10.90;7.63;;;;;;;;;;5325232;28;20379;-68
2022/09/10 12:59:45;;;;;;;8.77;7.40;;;;;;;;;;5324257;28;20028;-68
2022/09/10 13:02:18;;;;;;;8.23;6.55;;;;;;;;;;5325941;28;20035;-68
2022/09/10 13:04:53;;;;;;;6.78;5.93;;;;;;;;;;5325037;28;20016;-68
2022/09/10 13:07:30;;;;;;;5.72;5.05;;;;;;;;;;5324456;28;20028;-68
2022/09/10 13:10:13;;;;;;;4.80;4.07;;;;;;;;;;5325640;28;20054;-67
2022/09/10 13:12:45;;;;;;;5.30;4.78;;;;;;;;;;5324258;28;20106;-68
2022/09/10 13:15:18;;;;;;;6.15;5.40;;;;;;;;;;5325777;28;20043;-67
2022/09/10 13:17:53;;;;;;;6.82;5.68;;;;;;;;;;5324214;28;20030;-67
2022/09/10 13:20:24;;;;;;;6.75;6.15;;;;;;;;;;5324021;28;20478;-68
2022/09/10 13:22:55;;;;;;;7.85;6.75;;;;;;;;;;5325321;28;20069;-68
2022/09/10 13:25:35;;;;;;;8.98;8.18;;;;;;;;;;5324944;28;20069;-69
2022/09/10 13:28:25;;;;;;;10.65;9.82;;;;;;;;;;5324567;28;20381;-68
2022/09/10 13:31:00;;;;;;;9.70;9.00;;;;;;;;;;5325394;28;20390;-68
2022/09/10 13:33:34;;;;;;;10.32;9.30;;;;;;;;;;5324200;28;20149;-67
2022/09/10 13:36:05;;;;;;;11.95;9.80;;;;;;;;;;5325298;28;20031;-68
2022/09/10 13:38:42;;;;;;;9.68;8.88;;;;;;;;;;5324678;28;20011;-67
2022/09/10 13:41:26;;;;;;;9.52;8.73;;;;;;;;;;5324806;28;20019;-67
2022/09/10 13:44:30;;;;;;;9.60;8.80;;;;;;;;;;5325403;28;20016;-69
2022/09/10 13:47:21;;;;;;;9.73;8.93;;;;;;;;;;5301324;28;20039;-67
2022/09/10 13:50:01;;;;;;;10.85;8.90;;;;;;;;;;5323135;28;20122;-68
2022/09/10 13:52:34;;;;;;;10.40;9.50;;;;;;;;;;5324243;28;20040;-67
2022/09/10 13:55:06;;;;;;;10.45;9.32;;;;;;;;;;5324330;28;20015;-67
2022/09/10 13:57:39;;;;;;;9.70;9.00;;;;;;;;;;5324102;28;20411;-67
2022/09/10 14:00:22;;;;;;;10.52;9.52;;;;;;;;;;5324836;28;20023;-67
2022/09/10 14:02:58;;;;;;;10.90;9.93;;;;;;;;;;5323627;28;20047;-67
2022/09/10 14:05:32;;;;;;;13.60;10.80;;;;;;;;;;5323908;28;20096;-67
2022/09/10 14:08:04;;;;;;;14.25;11.48;;;;;;;;;;5324637;28;20102;-67
2022/09/10 14:10:47;;;;;;;13.48;12.07;;;;;;;;;;5323091;28;20118;-67
2022/09/10 14:13:25;;;;;;;12.15;10.95;;;;;;;;;;5324637;28;20026;-68
2022/09/10 14:15:58;;;;;;;12.07;11.00;;;;;;;;;;5323585;28;20096;-68
2022/09/10 14:18:38;;;;;;;11.52;10.50;;;;;;;;;;5323822;28;20024;-69
2022/09/10 14:21:10;;;;;;;10.63;9.77;;;;;;;;;;5324597;28;20023;-68
2022/09/10 14:23:42;;;;;;;11.75;10.43;;;;;;;;;;5323212;28;20020;-68
2022/09/10 14:26:16;;;;;;;11.07;10.07;;;;;;;;;;5324431;28;20035;-68
2022/09/10 14:28:49;;;;;;;8.63;7.97;;;;;;;;;;5323710;28;20016;-68
2022/09/10 14:31:26;;;;;;;9.82;8.85;;;;;;;;;;5323801;28;20047;-68
2022/09/10 14:33:58;;;;;;;12.13;10.93;;;;;;;;;;5324493;28;20011;-68
2022/09/10 14:36:32;;;;;;;12.52;11.20;;;;;;;;;;5323686;28;20020;-68
2022/09/10 14:39:14;;;;;;;12.85;11.82;;;;;;;;;;5323438;28;20104;-68
2022/09/10 14:41:46;;;;;;;12.52;11.40;;;;;;;;;;5323386;28;20026;-68
2022/09/10 14:44:21;;;;;;;12.73;11.73;;;;;;;;;;5323340;28;20023;-68
2022/09/10 14:46:52;;;;;;;13.38;11.98;;;;;;;;;;5323192;28;20448;-68
2022/09/10 14:49:25;;;;;;;14.23;12.93;;;;;;;;;;5322788;28;20054;-68
2022/09/10 14:51:57;;;;;;;13.05;11.30;;;;;;;;;;5322779;28;20374;-68
2022/09/10 14:54:29;;;;;;;13.18;11.98;;;;;;;;;;5323527;28;20018;-68
2022/09/10 14:57:02;;;;;;;12.50;10.45;;;;;;;;;;5323677;28;20016;-68
2022/09/10 14:59:34;;;;;;;10.23;9.43;;;;;;;;;;5321926;28;20100;-68
2022/09/10 15:02:11;;;;;;;11.68;9.38;;;;;;;;;;5323797;28;20036;-68
2022/09/10 15:04:43;;;;;;;12.00;10.70;;;;;;;;;;5323246;28;20558;-68
2022/09/10 15:07:14;;;;;;;11.65;10.70;;;;;;;;;;5323196;28;20015;-69
2022/09/10 15:09:45;;;;;;;11.77;10.88;;;;;;;;;;5323079;28;20293;-69